createdAt,value
2023-03-11T00:00:20.680Z,5.40
2023-03-11T00:02:50.854Z,5.40
2023-03-11T00:05:20.417Z,5.40
2023-03-11T00:07:52.336Z,5.40
2023-03-11T00:10:22.797Z,5.30
2023-03-11T00:12:50.841Z,5.30
2023-03-11T00:15:20.324Z,5.30
2023-03-11T00:17:53.783Z,5.30
2023-03-11T00:20:23.511Z,5.30
2023-03-11T00:22:51.955Z,5.20
2023-03-11T00:25:21.131Z,5.20
2023-03-11T00:27:49.078Z,5.20
2023-03-11T00:30:20.024Z,5.20
2023-03-11T00:32:49.173Z,5.20
2023-03-11T00:35:19.428Z,5.20
2023-03-11T00:37:49.144Z,5.10
2023-03-11T00:40:19.007Z,5.00
2023-03-11T00:42:47.167Z,5.00
2023-03-11T00:45:15.907Z,5.00
2023-03-11T00:47:45.248Z,5.00
2023-03-11T00:50:17.785Z,5.00
2023-03-11T00:52:46.046Z,4.90
2023-03-11T00:55:15.372Z,4.80
2023-03-11T00:57:43.465Z,4.80
2023-03-11T01:00:15.764Z,4.80
2023-03-11T01:02:45.135Z,4.70
2023-03-11T01:05:13.961Z,4.70
2023-03-11T01:07:41.906Z,4.70
2023-03-11T01:10:11.447Z,4.60
2023-03-11T01:12:39.364Z,4.70
2023-03-11T01:15:15.933Z,4.60
2023-03-11T01:17:45.160Z,4.60
2023-03-11T01:20:13.758Z,4.70
2023-03-11T01:22:41.624Z,4.70
2023-03-11T01:25:11.466Z,4.70
2023-03-11T01:27:39.305Z,4.70
2023-03-11T01:30:08.443Z,4.60
2023-03-11T01:32:36.380Z,4.60
2023-03-11T01:35:06.083Z,4.60
2023-03-11T01:37:33.987Z,4.60
2023-03-11T01:40:01.833Z,4.60
2023-03-11T01:42:29.668Z,4.60
2023-03-11T01:44:57.445Z,4.60
2023-03-11T01:47:46.085Z,4.50
2023-03-11T01:50:15.330Z,4.50
2023-03-11T01:52:44.636Z,4.50
2023-03-11T01:55:14.511Z,4.60
2023-03-11T01:57:45.108Z,4.50
2023-03-11T02:00:15.698Z,4.40
2023-03-11T02:02:47.299Z,4.40
2023-03-11T02:05:17.829Z,4.40
2023-03-11T02:07:46.242Z,4.40
2023-03-11T02:10:14.948Z,4.40
2023-03-11T02:12:43.463Z,4.40
2023-03-11T02:15:12.773Z,4.40
2023-03-11T02:17:43.299Z,4.30
2023-03-11T02:20:21.502Z,4.20
2023-03-11T02:22:57.045Z,4.20
2023-03-11T02:25:33.532Z,4.20
2023-03-11T02:28:05.785Z,4.20
2023-03-11T02:30:35.613Z,4.20
2023-03-11T02:33:04.025Z,4.20
2023-03-11T02:35:32.486Z,4.20
2023-03-11T02:38:00.488Z,4.20
2023-03-11T02:40:49.991Z,4.10
2023-03-11T02:43:23.566Z,4.20
2023-03-11T02:45:51.820Z,4.10
2023-03-11T02:48:21.077Z,4.10
2023-03-11T02:50:48.955Z,4.10
2023-03-11T02:53:17.139Z,4.10
2023-03-11T02:55:44.967Z,4.00
2023-03-11T02:58:12.859Z,4.00
2023-03-11T03:00:42.154Z,4.00
2023-03-11T03:03:10.614Z,4.00
2023-03-11T03:05:38.650Z,4.00
2023-03-11T03:08:06.789Z,4.00
2023-03-11T03:10:34.690Z,3.90
2023-03-11T03:13:02.521Z,3.90
2023-03-11T03:15:30.555Z,3.80
2023-03-11T03:17:59.757Z,3.90
2023-03-11T03:20:27.694Z,3.80
2023-03-11T03:22:55.574Z,3.80
2023-03-11T03:25:23.594Z,3.80
2023-03-11T03:27:51.436Z,3.80
2023-03-11T03:30:19.752Z,3.70
2023-03-11T03:32:48.358Z,3.80
2023-03-11T03:35:17.847Z,3.70
2023-03-11T03:37:48.020Z,3.70
2023-03-11T03:40:16.163Z,3.70
2023-03-11T03:42:44.001Z,3.70
2023-03-11T03:45:12.861Z,3.60
2023-03-11T03:47:40.802Z,3.70
2023-03-11T03:50:11.393Z,3.60
2023-03-11T03:52:40.710Z,3.60
2023-03-11T03:55:09.154Z,3.60
2023-03-11T03:57:37.043Z,3.60
2023-03-11T04:00:08.952Z,3.60
2023-03-11T04:02:37.070Z,3.60
2023-03-11T04:05:05.485Z,3.60
2023-03-11T04:07:34.980Z,3.60
2023-03-11T04:10:05.122Z,3.60
2023-03-11T04:12:33.036Z,3.60
2023-03-11T04:15:00.843Z,3.60
2023-03-11T04:17:28.692Z,3.60
2023-03-11T04:19:56.530Z,3.60
2023-03-11T04:22:24.349Z,3.60
2023-03-11T04:24:52.143Z,3.60
2023-03-11T04:27:21.571Z,3.60
2023-03-11T04:29:49.438Z,3.60
2023-03-11T04:32:17.288Z,3.60
2023-03-11T04:34:45.153Z,3.60
2023-03-11T04:37:13.020Z,3.60
2023-03-11T04:39:40.882Z,3.60
2023-03-11T04:42:08.798Z,3.60
2023-03-11T04:44:38.129Z,3.60
2023-03-11T04:47:06.303Z,3.60
2023-03-11T04:49:34.155Z,3.50
2023-03-11T04:52:01.978Z,3.50
2023-03-11T04:54:29.908Z,3.50
2023-03-11T04:56:57.826Z,3.50
2023-03-11T04:59:25.714Z,3.50
2023-03-11T05:01:55.300Z,3.50
2023-03-11T05:04:23.261Z,3.50
2023-03-11T05:06:51.999Z,3.40
2023-03-11T05:09:19.986Z,3.50
2023-03-11T05:11:50.621Z,3.40
2023-03-11T05:14:18.530Z,3.40
2023-03-11T05:16:46.424Z,3.40
2023-03-11T05:19:34.797Z,3.40
2023-03-11T05:22:02.840Z,3.40
2023-03-11T05:24:31.234Z,3.40
2023-03-11T05:26:59.423Z,3.30
2023-03-11T05:29:27.427Z,3.30
2023-03-11T05:31:55.312Z,3.30
2023-03-11T05:34:24.548Z,3.30
2023-03-11T05:36:52.451Z,3.30
2023-03-11T05:39:20.349Z,3.30
2023-03-11T05:41:49.389Z,3.20
2023-03-11T05:44:17.341Z,3.20
2023-03-11T05:46:45.265Z,3.20
2023-03-11T05:49:13.175Z,3.20
2023-03-11T05:51:42.433Z,3.10
2023-03-11T05:54:14.915Z,3.10
2023-03-11T05:56:43.281Z,3.10
2023-03-11T05:59:12.109Z,3.10
2023-03-11T06:01:41.188Z,3.10
2023-03-11T06:04:09.202Z,3.10
2023-03-11T06:06:37.423Z,3.10
2023-03-11T06:09:06.738Z,3.00
2023-03-11T06:11:34.722Z,3.00
2023-03-11T06:14:02.612Z,3.00
2023-03-11T06:16:30.550Z,3.00
2023-03-11T06:19:00.564Z,3.00
2023-03-11T06:21:28.790Z,2.90
2023-03-11T06:23:57.828Z,3.00
2023-03-11T06:26:27.096Z,3.00
2023-03-11T06:28:54.951Z,2.90
2023-03-11T06:31:25.329Z,2.90
2023-03-11T06:33:55.832Z,2.90
2023-03-11T06:36:25.459Z,2.90
2023-03-11T06:38:54.358Z,2.90
2023-03-11T06:41:22.401Z,2.90
2023-03-11T06:43:51.599Z,2.90
2023-03-11T06:46:22.128Z,2.90
2023-03-11T06:48:52.080Z,2.90
2023-03-11T06:51:20.982Z,2.80
2023-03-11T06:53:49.831Z,2.80
2023-03-11T06:56:17.726Z,2.90
2023-03-11T06:58:47.185Z,2.80
2023-03-11T07:01:17.848Z,2.80
2023-03-11T07:03:47.942Z,2.80
2023-03-11T07:06:17.029Z,2.80
2023-03-11T07:08:44.986Z,2.80
2023-03-11T07:11:15.732Z,2.80
2023-03-11T07:13:44.060Z,2.80
2023-03-11T07:16:15.608Z,2.80
2023-03-11T07:18:47.626Z,2.80
2023-03-11T07:21:18.874Z,2.80
2023-03-11T07:23:47.218Z,2.80
2023-03-11T07:26:17.898Z,2.80
2023-03-11T07:28:46.208Z,2.80
2023-03-11T07:31:20.336Z,2.80
2023-03-11T07:33:57.828Z,2.80
2023-03-11T07:36:27.011Z,2.80
2023-03-11T07:38:58.369Z,2.80
2023-03-11T07:41:27.615Z,2.80
2023-03-11T07:43:56.700Z,2.80
2023-03-11T07:46:25.849Z,2.80
2023-03-11T07:48:55.523Z,2.80
2023-03-11T07:51:24.489Z,2.80
2023-03-11T07:53:54.699Z,2.80
2023-03-11T07:56:23.917Z,2.80
2023-03-11T07:58:52.549Z,2.80
2023-03-11T08:01:22.870Z,2.80
2023-03-11T08:03:56.908Z,2.80
2023-03-11T08:06:29.147Z,2.80
2023-03-11T08:08:57.000Z,2.80
2023-03-11T08:11:25.504Z,2.80
2023-03-11T08:13:53.877Z,2.80
2023-03-11T08:16:23.195Z,2.80
2023-03-11T08:18:52.504Z,2.80
2023-03-11T08:21:22.951Z,2.80
2023-03-11T08:23:52.762Z,2.80
2023-03-11T08:26:22.544Z,2.80
2023-03-11T08:28:51.228Z,2.80
2023-03-11T08:31:20.645Z,2.80
2023-03-11T08:33:57.811Z,2.80
2023-03-11T08:36:25.990Z,2.80
2023-03-11T08:38:55.421Z,2.90
2023-03-11T08:41:23.277Z,2.90
2023-03-11T08:43:52.214Z,2.90
2023-03-11T08:46:24.633Z,2.90
2023-03-11T08:48:53.078Z,2.90
2023-03-11T08:51:21.264Z,2.90
2023-03-11T08:53:49.545Z,2.90
2023-03-11T08:56:18.800Z,2.90
2023-03-11T08:58:47.239Z,2.90
2023-03-11T09:01:15.174Z,2.90
2023-03-11T09:03:43.048Z,2.90
2023-03-11T09:06:15.317Z,3.00
2023-03-11T09:08:43.902Z,3.00
2023-03-11T09:11:13.394Z,3.00
2023-03-11T09:13:43.173Z,3.00
2023-03-11T09:16:14.195Z,3.00
2023-03-11T09:18:42.583Z,3.10
2023-03-11T09:21:11.307Z,3.10
2023-03-11T09:23:39.776Z,3.10
2023-03-11T09:26:08.532Z,3.10
2023-03-11T09:28:36.414Z,3.10
2023-03-11T09:31:06.463Z,3.10
2023-03-11T09:33:38.223Z,3.10
2023-03-11T09:36:06.996Z,3.10
2023-03-11T09:38:34.795Z,3.10
2023-03-11T09:41:07.171Z,3.10
2023-03-11T09:43:56.668Z,3.10
2023-03-11T09:46:53.121Z,3.10
2023-03-11T09:49:28.554Z,3.20
2023-03-11T09:52:04.905Z,3.20
2023-03-11T09:54:38.014Z,3.20
2023-03-11T09:57:07.641Z,3.20
2023-03-11T09:59:37.484Z,3.20
2023-03-11T10:02:07.269Z,3.30
2023-03-11T10:04:40.842Z,3.30
2023-03-11T10:07:14.819Z,3.30
2023-03-11T10:09:48.353Z,3.40
2023-03-11T10:12:28.132Z,3.40
2023-03-11T10:15:09.382Z,3.40
2023-03-11T10:17:51.818Z,3.40
2023-03-11T10:20:23.656Z,3.50
2023-03-11T10:23:03.676Z,3.50
2023-03-11T10:25:38.740Z,3.50
2023-03-11T10:28:12.621Z,3.50
2023-03-11T10:30:46.071Z,3.50
2023-03-11T10:33:22.445Z,3.50
2023-03-11T10:35:53.594Z,3.50
2023-03-11T10:38:25.784Z,3.50
2023-03-11T10:40:56.592Z,3.50
2023-03-11T10:43:28.704Z,3.50
2023-03-11T10:45:56.643Z,3.60
2023-03-11T10:48:27.193Z,3.60
2023-03-11T10:51:02.428Z,3.70
2023-03-11T10:53:31.499Z,3.60
2023-03-11T10:56:00.509Z,3.70
2023-03-11T10:58:30.309Z,3.70
2023-03-11T11:01:06.190Z,3.70
2023-03-11T11:03:35.694Z,3.70
2023-03-11T11:06:06.240Z,3.70
2023-03-11T11:08:34.612Z,3.70
2023-03-11T11:11:04.547Z,3.80
2023-03-11T11:13:34.391Z,3.80
2023-03-11T11:16:04.514Z,3.80
2023-03-11T11:18:36.365Z,3.90
2023-03-11T11:21:06.557Z,3.90
2023-03-11T11:23:42.494Z,4.00
2023-03-11T11:26:20.302Z,4.00
2023-03-11T11:29:07.682Z,4.10
2023-03-11T11:31:38.063Z,4.10
2023-03-11T11:34:28.504Z,4.20
2023-03-11T11:36:58.136Z,4.20
2023-03-11T11:39:28.629Z,4.30
2023-03-11T11:41:57.568Z,4.30
2023-03-11T11:44:33.427Z,4.30
2023-03-11T11:47:08.844Z,4.40
2023-03-11T11:49:38.479Z,4.50
2023-03-11T11:52:11.924Z,4.60
2023-03-11T11:54:44.309Z,4.60
2023-03-11T11:57:13.842Z,4.60
2023-03-11T11:59:42.009Z,4.60
2023-03-11T12:02:23.590Z,4.70
2023-03-11T12:05:02.186Z,4.70
2023-03-11T12:07:41.088Z,4.80
2023-03-11T12:10:29.871Z,4.80
2023-03-11T12:13:22.668Z,4.80
2023-03-11T12:15:56.545Z,4.80
2023-03-11T12:18:30.305Z,4.70
2023-03-11T12:21:00.100Z,4.70
2023-03-11T12:23:39.777Z,4.70
2023-03-11T12:26:16.661Z,4.70
2023-03-11T12:28:49.777Z,4.70
2023-03-11T12:31:18.135Z,4.70
2023-03-11T12:33:47.423Z,4.70
2023-03-11T12:36:30.461Z,4.70
2023-03-11T12:38:58.978Z,4.70
2023-03-11T12:41:36.923Z,4.70
2023-03-11T12:44:06.918Z,4.70
2023-03-11T12:47:11.124Z,4.80
2023-03-11T12:49:40.663Z,4.80
2023-03-11T12:52:22.165Z,4.80
2023-03-11T12:55:11.198Z,4.80
2023-03-11T12:57:45.768Z,4.90
2023-03-11T13:00:30.398Z,4.80
2023-03-11T13:03:16.685Z,4.80
2023-03-11T13:05:55.192Z,4.90
2023-03-11T13:08:26.016Z,4.90
2023-03-11T13:10:55.004Z,4.90
2023-03-11T13:13:37.682Z,4.90
2023-03-11T13:16:40.079Z,4.90
2023-03-11T13:19:54.746Z,4.90
2023-03-11T13:22:55.262Z,5.00
2023-03-11T13:25:36.083Z,4.90
2023-03-11T13:28:38.497Z,4.90
2023-03-11T13:31:20.827Z,4.90
2023-03-11T13:33:54.027Z,5.00
2023-03-11T13:36:37.422Z,5.00
2023-03-11T13:39:35.732Z,5.00
2023-03-11T13:42:14.556Z,5.00
2023-03-11T13:44:42.909Z,5.00
2023-03-11T13:47:15.403Z,5.10
2023-03-11T13:49:47.210Z,5.10
2023-03-11T13:52:18.053Z,5.10
2023-03-11T13:54:49.186Z,5.10
2023-03-11T13:57:22.781Z,5.10
2023-03-11T13:59:53.972Z,5.20
2023-03-11T14:02:22.915Z,5.30
2023-03-11T14:04:53.886Z,5.40
2023-03-11T14:07:26.983Z,5.50
2023-03-11T14:10:19.561Z,5.40
2023-03-11T14:12:49.248Z,5.50
2023-03-11T14:15:22.236Z,5.50
2023-03-11T14:17:51.840Z,5.50
2023-03-11T14:20:22.344Z,5.60
2023-03-11T14:22:52.780Z,5.60
2023-03-11T14:25:23.771Z,5.60
2023-03-11T14:27:57.889Z,5.60
2023-03-11T14:30:28.291Z,5.70
2023-03-11T14:33:01.553Z,5.70
2023-03-11T14:35:30.245Z,5.70
2023-03-11T14:37:58.318Z,5.70
2023-03-11T14:40:30.225Z,5.70
2023-03-11T14:43:02.549Z,5.70
2023-03-11T14:45:33.109Z,5.70
2023-03-11T14:48:07.526Z,5.60
2023-03-11T14:50:36.091Z,5.70
2023-03-11T14:53:08.899Z,5.70
2023-03-11T14:55:41.058Z,5.70
2023-03-11T14:58:16.247Z,5.80
2023-03-11T15:00:49.882Z,5.80
2023-03-11T15:03:24.420Z,5.80
2023-03-11T15:05:55.228Z,5.70
2023-03-11T15:08:27.645Z,5.70
2023-03-11T15:11:07.252Z,5.70
2023-03-11T15:13:37.386Z,5.70
2023-03-11T15:16:07.617Z,5.70
2023-03-11T15:18:38.558Z,5.60
2023-03-11T15:21:15.903Z,5.60
2023-03-11T15:23:47.267Z,5.60
2023-03-11T15:26:25.350Z,5.60
2023-03-11T15:29:00.103Z,5.60
2023-03-11T15:31:37.011Z,5.60
2023-03-11T15:34:30.755Z,5.60
2023-03-11T15:37:03.211Z,5.60
2023-03-11T15:39:44.867Z,5.70
2023-03-11T15:42:24.479Z,5.60
2023-03-11T15:45:19.496Z,5.70
2023-03-11T15:47:49.376Z,5.70
2023-03-11T15:50:27.280Z,5.70
2023-03-11T15:52:59.378Z,5.60
2023-03-11T15:55:28.482Z,5.60
2023-03-11T15:58:03.180Z,5.60
2023-03-11T16:00:33.045Z,5.60
2023-03-11T16:03:02.068Z,5.60
2023-03-11T16:05:30.268Z,5.50
2023-03-11T16:07:58.149Z,5.60
2023-03-11T16:10:28.676Z,5.50
2023-03-11T16:12:56.905Z,5.60
2023-03-11T16:15:28.585Z,5.60
2023-03-11T16:17:59.440Z,5.50
2023-03-11T16:20:29.753Z,5.50
2023-03-11T16:22:59.585Z,5.50
2023-03-11T16:25:31.554Z,5.50
2023-03-11T16:27:59.867Z,5.40
2023-03-11T16:30:29.337Z,5.40
2023-03-11T16:32:58.811Z,5.40
2023-03-11T16:35:27.455Z,5.40
2023-03-11T16:37:55.309Z,5.40
2023-03-11T16:40:26.728Z,5.40
2023-03-11T16:42:57.462Z,5.40
2023-03-11T16:45:25.460Z,5.40
2023-03-11T16:47:53.326Z,5.30
2023-03-11T16:50:24.220Z,5.30
2023-03-11T16:52:52.115Z,5.30
2023-03-11T16:55:20.770Z,5.30
2023-03-11T16:57:49.113Z,5.20
2023-03-11T17:00:18.191Z,5.20
2023-03-11T17:02:47.048Z,5.20
2023-03-11T17:05:14.957Z,5.20
2023-03-11T17:07:44.291Z,5.10
2023-03-11T17:10:13.534Z,5.10
2023-03-11T17:12:41.413Z,5.10
2023-03-11T17:15:10.002Z,5.10
2023-03-11T17:17:37.805Z,5.00
2023-03-11T17:20:07.473Z,5.00
2023-03-11T17:22:35.376Z,5.00
2023-03-11T17:25:05.624Z,5.00
2023-03-11T17:27:33.790Z,5.00
2023-03-11T17:30:02.413Z,5.00
2023-03-11T17:32:30.395Z,5.00
2023-03-11T17:34:58.456Z,5.00
2023-03-11T17:37:26.405Z,4.90
2023-03-11T17:39:54.508Z,4.90
2023-03-11T17:42:24.055Z,4.90
2023-03-11T17:44:52.347Z,4.90
2023-03-11T17:47:21.309Z,4.90
2023-03-11T17:49:49.791Z,4.90
2023-03-11T17:52:17.641Z,4.90
2023-03-11T17:54:46.397Z,4.90
2023-03-11T17:57:14.259Z,4.90
2023-03-11T17:59:43.508Z,4.80
2023-03-11T18:02:14.506Z,4.80
2023-03-11T18:04:53.384Z,4.80
2023-03-11T18:07:23.511Z,4.80
2023-03-11T18:09:53.045Z,4.80
2023-03-11T18:12:21.670Z,4.70
